Time;durP1;ratioP1;P1;durP2;ratioP2;P2;SDS_P1;SDS_P2;PMS_P1;PMS_P2;Temp;Humidity;BMP_temperature;BMP_pressure;BME280_temperature;BME280_humidity;BME280_pressure;Samples;Min_cycle;Max_cycle;Signal;HPM_P1;HPM_P2
2023/08/11 00:01:33;;;;;;;1.83;1.73;;;;;;;18.15;86.11;98430.53;5088212;28;20191;-57
2023/08/11 00:03:59;;;;;;;1.90;1.80;;;;;;;18.32;85.50;98454.13;5088559;28;20395;-57
2023/08/11 00:06:25;;;;;;;1.83;1.73;;;;;;;18.42;85.68;98475.00;5088250;28;20198;-57
2023/08/11 00:08:52;;;;;;;2.13;2.03;;;;;;;18.22;85.17;98436.81;5088323;28;20282;-57
2023/08/11 00:11:18;;;;;;;1.80;1.70;;;;;;;18.11;85.52;98429.19;5088340;28;20183;-57
2023/08/11 00:13:44;;;;;;;1.83;1.73;;;;;;;18.04;86.38;98430.75;5088638;28;20638;-57
2023/08/11 00:16:10;;;;;;;1.95;1.85;;;;;;;18.00;86.52;98432.88;5090808;28;20176;-57
2023/08/11 00:18:35;;;;;;;1.65;1.55;;;;;;;17.93;87.02;98425.75;5090663;28;20662;-56
2023/08/11 00:21:00;;;;;;;2.28;2.10;;;;;;;18.02;87.40;98440.56;5090803;28;20244;-56
2023/08/11 00:23:26;;;;;;;1.77;1.67;;;;;;;18.11;86.77;98456.19;5090637;28;20666;-56
2023/08/11 00:25:51;;;;;;;1.80;1.70;;;;;;;18.11;86.49;98440.50;5090552;28;20183;-56
2023/08/11 00:28:17;;;;;;;1.80;1.70;;;;;;;18.19;86.69;98466.75;5090693;28;20696;-56
2023/08/11 00:30:42;;;;;;;1.70;1.52;;;;;;;18.19;86.47;98452.84;5090927;28;20554;-56
2023/08/11 00:33:07;;;;;;;2.58;1.90;;;;;;;18.18;86.01;98446.75;5090418;28;20191;-56
2023/08/11 00:35:33;;;;;;;1.92;1.83;;;;;;;18.31;85.67;98462.09;5090616;28;20273;-57
2023/08/11 00:37:58;;;;;;;2.10;1.90;;;;;;;18.22;85.48;98448.13;5090280;28;20232;-56
2023/08/11 00:40:24;;;;;;;1.48;1.48;;;;;;;18.14;84.87;98436.75;5111039;28;20661;-56
2023/08/11 00:42:50;;;;;;;1.83;1.73;;;;;;;18.29;85.39;98459.63;5112384;28;20314;-56
2023/08/11 00:45:16;;;;;;;1.90;1.80;;;;;;;18.14;85.54;98442.78;5112539;28;20266;-56
2023/08/11 00:47:42;;;;;;;1.45;1.38;;;;;;;18.12;85.59;98444.75;5112212;28;20281;-57
2023/08/11 00:50:10;;;;;;;1.98;1.88;;;;;;;18.09;86.31;98463.41;5112232;28;20177;-57
2023/08/11 00:52:37;;;;;;;1.50;1.50;;;;;;;18.13;85.66;98456.88;5112133;28;20763;-57
2023/08/11 00:55:03;;;;;;;2.47;1.60;;;;;;;18.18;85.64;98470.34;5112068;28;20212;-57
2023/08/11 00:57:29;;;;;;;1.42;1.42;;;;;;;17.97;85.34;98432.34;5111885;28;20199;-57
2023/08/11 00:59:56;;;;;;;1.42;1.42;;;;;;;17.97;85.96;98443.66;5111878;28;20179;-56
2023/08/11 01:02:21;;;;;;;1.85;1.75;;;;;;;18.06;86.49;98465.47;5111790;28;20224;-56
2023/08/11 01:04:48;;;;;;;1.90;1.80;;;;;;;17.94;86.82;98464.03;5111894;28;20183;-57
2023/08/11 01:07:31;;;;;;;1.73;1.63;;;;;;;17.73;87.20;98434.75;5111725;28;20195;-57
2023/08/11 01:10:06;;;;;;;1.52;1.50;;;;;;;17.95;87.47;98466.53;5111866;28;20289;-56
2023/08/11 01:12:43;;;;;;;1.88;1.77;;;;;;;17.79;88.36;98473.41;5111805;28;20744;-56
2023/08/11 01:15:31;;;;;;;2.05;1.85;;;;;;;17.63;88.56;98454.91;5111800;28;20621;-57
2023/08/11 01:17:57;;;;;;;1.50;1.40;;;;;;;17.45;88.79;98435.75;5101670;28;20183;-57
2023/08/11 01:20:23;;;;;;;1.42;1.33;;;;;;;17.51;90.04;98462.16;5093696;28;20183;-56
2023/08/11 01:22:53;;;;;;;1.75;1.65;;;;;;;17.51;90.18;98469.16;5093659;28;20200;-56
2023/08/11 01:25:19;;;;;;;2.03;1.80;;;;;;;17.32;90.51;98450.94;5093737;28;20172;-57
2023/08/11 01:28:06;;;;;;;1.75;1.65;;;;;;;17.41;90.62;98471.84;5093626;28;20176;-57
2023/08/11 01:30:34;;;;;;;2.08;1.70;;;;;;;17.32;90.84;98456.19;5093250;28;20188;-55
2023/08/11 01:32:59;;;;;;;1.83;1.73;;;;;;;17.17;91.45;98448.00;5093466;28;20225;-56
2023/08/11 01:35:25;;;;;;;1.90;1.80;;;;;;;17.25;91.38;98450.69;5093496;28;20176;-56
2023/08/11 01:37:51;;;;;;;1.98;1.83;;;;;;;17.12;92.17;98460.66;5093345;28;20524;-56
2023/08/11 01:40:16;;;;;;;1.90;1.80;;;;;;;17.04;92.38;98441.44;5093326;28;20172;-56
2023/08/11 01:42:44;;;;;;;1.80;1.70;;;;;;;17.07;92.08;98435.91;5093344;28;20207;-56
2023/08/11 01:45:11;;;;;;;1.77;1.67;;;;;;;17.13;93.27;98474.56;5093300;28;20169;-56
2023/08/11 01:47:39;;;;;;;1.50;1.50;;;;;;;17.11;92.92;98468.66;5093242;28;20659;-56
2023/08/11 01:50:09;;;;;;;2.25;2.05;;;;;;;17.17;92.58;98476.75;5093462;28;20263;-56
2023/08/11 01:52:39;;;;;;;1.95;1.85;;;;;;;17.27;91.68;98485.38;5093132;28;20187;-57
2023/08/11 01:55:05;;;;;;;1.70;1.45;;;;;;;17.18;90.52;98446.19;5093060;28;20174;-57
2023/08/11 01:57:31;;;;;;;1.80;1.70;;;;;;;17.53;90.24;98475.91;5092659;28;20727;-57
2023/08/11 01:59:56;;;;;;;1.30;1.30;;;;;;;17.36;89.36;98437.41;5093029;28;20184;-57
2023/08/11 02:02:21;;;;;;;1.60;1.50;;;;;;;17.62;88.57;98479.44;5093121;28;20204;-57
2023/08/11 02:04:48;;;;;;;1.85;1.70;;;;;;;17.59;88.58;98469.25;5092927;28;20180;-57
2023/08/11 02:07:13;;;;;;;1.90;1.80;;;;;;;17.57;88.02;98455.50;5092836;28;20210;-57
2023/08/11 02:09:39;;;;;;;1.42;1.42;;;;;;;17.57;87.21;98443.25;5092786;28;20175;-57
2023/08/11 02:12:05;;;;;;;1.90;1.50;;;;;;;17.62;86.60;98448.88;5092696;28;20557;-57
2023/08/11 02:14:32;;;;;;;1.75;1.65;;;;;;;17.79;86.76;98470.78;5092437;28;20248;-57
2023/08/11 02:16:57;;;;;;;1.48;1.48;;;;;;;17.72;85.56;98444.38;5092615;28;20172;-57
2023/08/11 02:19:22;;;;;;;1.67;1.60;;;;;;;17.72;85.81;98446.19;5092541;28;20271;-57
2023/08/11 02:21:49;;;;;;;1.50;1.40;;;;;;;17.83;85.84;98464.28;5092218;28;20225;-57
2023/08/11 02:24:15;;;;;;;2.00;1.90;;;;;;;17.94;85.62;98485.00;5092475;28;20182;-57
2023/08/11 02:26:40;;;;;;;1.80;1.70;;;;;;;17.96;85.15;98485.69;5092392;28;20176;-57
2023/08/11 02:29:07;;;;;;;1.50;1.40;;;;;;;17.94;85.30;98479.75;5092455;28;20650;-57
2023/08/11 02:31:32;;;;;;;1.65;1.55;;;;;;;17.78;84.98;98454.25;5092106;28;20195;-57
2023/08/11 02:33:58;;;;;;;1.67;1.58;;;;;;;17.70;85.23;98448.09;5092371;28;20642;-57
2023/08/11 02:36:24;;;;;;;1.60;1.50;;;;;;;17.88;84.87;98483.81;5092330;28;20638;-57
2023/08/11 02:38:50;;;;;;;1.85;1.75;;;;;;;17.77;86.00;98486.63;5092245;28;20167;-57
2023/08/11 02:41:16;;;;;;;1.70;1.65;;;;;;;17.50;86.00;98451.84;5092106;28;20659;-57
2023/08/11 02:43:41;;;;;;;2.30;2.10;;;;;;;17.44;86.47;98445.38;5092040;28;20274;-57
2023/08/11 02:46:07;;;;;;;1.63;1.52;;;;;;;17.62;86.56;98479.44;5092121;28;20180;-57
2023/08/11 02:48:36;;;;;;;1.70;1.60;;;;;;;17.65;86.44;98482.59;5092320;28;20172;-57
2023/08/11 02:51:04;;;;;;;3.50;1.95;;;;;;;17.59;86.41;98479.72;5091934;28;20179;-56
2023/08/11 02:53:31;;;;;;;3.80;1.90;;;;;;;17.53;86.16;98467.22;5091867;28;20202;-56
2023/08/11 02:55:56;;;;;;;2.08;1.98;;;;;;;17.51;85.75;98463.94;5091811;28;20186;-56
2023/08/11 02:58:22;;;;;;;1.55;1.45;;;;;;;17.59;86.27;98490.19;5091877;28;20168;-57
2023/08/11 03:00:49;;;;;;;1.75;1.65;;;;;;;17.57;85.92;98469.41;5091716;28;20175;-56
2023/08/11 03:03:14;;;;;;;1.92;1.83;;;;;;;17.57;85.13;98465.97;5090681;28;20230;-56
2023/08/11 03:05:43;;;;;;;1.58;1.48;;;;;;;17.56;86.19;98482.63;5091735;28;20172;-56
2023/08/11 03:08:08;;;;;;;1.45;1.35;;;;;;;17.57;86.52;98476.44;5091879;28;20187;-55
2023/08/11 03:10:33;;;;;;;1.95;1.85;;;;;;;17.58;86.34;98486.75;5091909;28;20178;-57
2023/08/11 03:13:01;;;;;;;1.88;1.77;;;;;;;17.41;86.54;98465.78;5091525;28;20202;-56
2023/08/11 03:15:27;;;;;;;2.13;1.63;;;;;;;17.50;86.83;98478.81;5091179;28;20571;-56
2023/08/11 03:17:54;;;;;;;1.67;1.50;;;;;;;17.50;86.47;98478.00;5091461;28;20172;-56
2023/08/11 03:20:20;;;;;;;2.25;1.83;;;;;;;17.54;87.01;98497.69;5091464;28;20175;-57
2023/08/11 03:22:45;;;;;;;2.35;1.80;;;;;;;17.53;85.98;98475.06;5091369;28;20199;-57
2023/08/11 03:25:11;;;;;;;1.90;1.80;;;;;;;17.58;85.61;98475.47;5091422;28;20646;-56
2023/08/11 03:27:40;;;;;;;2.13;2.03;;;;;;;17.56;84.80;98470.34;5091365;28;20170;-56
2023/08/11 03:30:07;;;;;;;1.70;1.60;;;;;;;17.63;85.12;98502.00;5091305;28;20210;-57
2023/08/11 03:32:32;;;;;;;2.33;1.83;;;;;;;17.46;85.54;98480.09;5091291;28;20175;-56
2023/08/11 03:34:58;;;;;;;3.95;2.08;;;;;;;17.49;85.59;98484.19;5091253;28;20198;-56
2023/08/11 03:37:23;;;;;;;2.22;1.98;;;;;;;17.53;86.18;98512.53;5090904;28;20199;-56
2023/08/11 03:39:51;;;;;;;2.38;1.90;;;;;;;17.51;86.71;98513.66;5091226;28;20171;-56
2023/08/11 03:42:17;;;;;;;2.10;2.00;;;;;;;17.49;86.04;98508.56;5090995;28;20264;-56
2023/08/11 03:44:43;;;;;;;1.80;1.70;;;;;;;17.51;86.50;98508.41;5091041;28;20179;-57
2023/08/11 03:47:09;;;;;;;1.85;1.75;;;;;;;17.45;85.40;98482.84;5091151;28;20604;-57
2023/08/11 03:49:34;;;;;;;1.70;1.60;;;;;;;17.76;84.55;98528.66;5091082;28;20183;-56
2023/08/11 03:52:00;;;;;;;1.90;1.65;;;;;;;17.68;85.12;98523.34;5091461;28;20607;-56
2023/08/11 03:54:25;;;;;;;2.03;1.92;;;;;;;17.67;84.62;98517.28;5091049;28;20266;-56
2023/08/11 03:56:51;;;;;;;1.75;1.65;;;;;;;17.38;84.91;98489.63;5090995;28;20266;-56
2023/08/11 03:59:16;;;;;;;2.75;2.00;;;;;;;17.44;85.48;98512.59;5090617;28;20251;-56
2023/08/11 04:01:42;;;;;;;1.90;1.80;;;;;;;17.44;85.19;98504.75;5091135;28;20171;-56
2023/08/11 04:04:08;;;;;;;2.00;1.90;;;;;;;17.65;85.24;98529.69;5090988;28;20184;-56
2023/08/11 04:06:33;;;;;;;1.63;1.52;;;;;;;17.68;85.14;98532.03;5090642;28;20187;-56
2023/08/11 04:09:00;;;;;;;2.20;2.00;;;;;;;17.54;84.85;98502.91;5090846;28;20180;-56
2023/08/11 04:11:27;;;;;;;2.08;1.98;;;;;;;17.78;83.99;98522.31;5090569;28;20199;-56
2023/08/11 04:13:52;;;;;;;1.95;1.83;;;;;;;17.82;83.58;98514.97;5092840;28;20234;-56
2023/08/11 04:16:17;;;;;;;1.88;1.70;;;;;;;17.90;82.99;98526.34;5094976;28;20646;-56
2023/08/11 04:18:43;;;;;;;2.08;1.50;;;;;;;18.14;82.32;98557.22;5094933;28;20171;-56
2023/08/11 04:21:08;;;;;;;2.00;1.90;;;;;;;18.10;81.86;98532.28;5094540;28;20168;-56
2023/08/11 04:23:34;;;;;;;1.90;1.80;;;;;;;18.04;81.62;98518.00;5094728;28;20204;-56
2023/08/11 04:25:59;;;;;;;2.00;1.90;;;;;;;18.00;81.50;98515.81;5094769;28;20237;-57
2023/08/11 04:28:24;;;;;;;2.17;2.08;;;;;;;18.32;81.32;98560.69;5094449;28;20218;-56
2023/08/11 04:30:50;;;;;;;1.80;1.70;;;;;;;18.38;79.97;98533.91;5094329;28;20639;-56
2023/08/11 04:33:15;;;;;;;2.00;1.90;;;;;;;18.40;79.81;98524.91;5094593;28;20180;-57
2023/08/11 04:35:41;;;;;;;1.63;1.52;;;;;;;18.63;78.69;98556.72;5094599;28;20172;-57
2023/08/11 04:38:07;;;;;;;1.90;1.80;;;;;;;18.41;78.76;98521.31;5094509;28;20511;-56
2023/08/11 04:40:33;;;;;;;1.90;1.80;;;;;;;18.43;78.59;98527.22;5094453;28;20248;-57
2023/08/11 04:42:59;;;;;;;1.88;1.70;;;;;;;18.65;78.82;98557.41;5094126;28;20290;-57
2023/08/11 04:45:25;;;;;;;1.85;1.75;;;;;;;18.42;79.08;98532.63;5094401;28;20684;-57
2023/08/11 04:47:51;;;;;;;1.80;1.70;;;;;;;18.65;78.46;98541.69;5094333;28;20172;-57
2023/08/11 04:50:16;;;;;;;1.75;1.65;;;;;;;18.57;77.69;98520.63;5094239;28;20674;-57
2023/08/11 04:52:42;;;;;;;1.65;1.55;;;;;;;18.88;77.61;98561.19;5094002;28;20207;-57
2023/08/11 04:55:08;;;;;;;2.30;1.95;;;;;;;18.60;77.59;98517.72;5093918;28;20533;-57
2023/08/11 04:57:34;;;;;;;1.88;1.77;;;;;;;19.00;76.91;98560.75;5094148;28;20175;-57
2023/08/11 05:00:00;;;;;;;1.90;1.80;;;;;;;18.92;76.27;98538.91;5094220;28;20254;-58
2023/08/11 05:02:26;;;;;;;1.90;1.80;;;;;;;18.92;75.83;98531.03;5093954;28;20222;-57
2023/08/11 05:04:52;;;;;;;1.65;1.55;;;;;;;19.02;74.70;98527.34;5094108;28;20260;-57
2023/08/11 05:07:17;;;;;;;1.65;1.55;;;;;;;19.03;75.06;98528.16;5093968;28;20195;-57
2023/08/11 05:09:43;;;;;;;2.13;1.65;;;;;;;19.17;74.89;98541.53;5093736;28;20195;-57
2023/08/11 05:12:10;;;;;;;2.25;1.75;;;;;;;19.20;74.86;98529.91;5093886;28;20190;-57
2023/08/11 05:14:36;;;;;;;1.70;1.60;;;;;;;19.51;73.47;98559.94;5094046;28;20175;-57
2023/08/11 05:17:02;;;;;;;2.05;1.70;;;;;;;19.53;73.26;98529.13;5093946;28;20172;-57
2023/08/11 05:19:27;;;;;;;1.90;1.70;;;;;;;19.66;72.63;98542.63;5093593;28;20167;-57
2023/08/11 05:21:54;;;;;;;1.73;1.63;;;;;;;19.89;72.15;98559.44;5093724;28;20179;-56
2023/08/11 05:24:19;;;;;;;1.88;1.77;;;;;;;19.82;71.66;98525.09;5093856;28;20184;-56
2023/08/11 05:26:45;;;;;;;1.80;1.70;;;;;;;20.00;71.36;98546.03;5093215;28;20179;-57
2023/08/11 05:29:10;;;;;;;2.17;1.38;;;;;;;20.02;71.03;98541.41;5093731;28;20176;-56
2023/08/11 05:31:36;;;;;;;2.13;1.52;;;;;;;20.10;70.42;98567.75;5093666;28;20551;-56
2023/08/11 05:34:01;;;;;;;1.60;1.50;;;;;;;20.00;70.49;98533.69;5093964;28;20184;-57
2023/08/11 05:36:27;;;;;;;2.20;1.73;;;;;;;20.04;69.83;98536.84;5093597;28;20608;-57
2023/08/11 05:38:52;;;;;;;2.28;1.70;;;;;;;20.32;69.45;98572.38;5093380;28;20597;-56
2023/08/11 05:41:18;;;;;;;1.65;1.55;;;;;;;20.23;69.24;98547.88;5093485;28;20172;-57
2023/08/11 05:43:43;;;;;;;2.58;2.20;;;;;;;20.42;69.71;98559.91;5093336;28;20290;-57
2023/08/11 05:46:08;;;;;;;2.20;1.70;;;;;;;20.39;70.04;98553.19;5093390;28;20175;-56
2023/08/11 05:48:35;;;;;;;1.60;1.45;;;;;;;20.61;68.88;98572.75;5093298;28;20167;-57
2023/08/11 05:51:02;;;;;;;1.60;1.50;;;;;;;20.55;68.83;98552.38;5093150;28;20271;-57
2023/08/11 05:53:27;;;;;;;1.98;1.70;;;;;;;20.68;68.57;98574.56;5092809;28;20202;-57
2023/08/11 05:55:52;;;;;;;3.72;1.70;;;;;;;20.52;68.08;98542.19;5093152;28;20642;-57
2023/08/11 05:58:18;;;;;;;1.75;1.65;;;;;;;20.80;67.92;98567.19;5093175;28;20168;-58
2023/08/11 06:00:43;;;;;;;1.88;1.77;;;;;;;20.80;67.44;98565.34;5093173;28;20545;-58
2023/08/11 06:03:09;;;;;;;1.85;1.75;;;;;;;20.97;67.13;98574.09;5093024;28;20256;-58
2023/08/11 06:05:34;;;;;;;1.65;1.55;;;;;;;21.01;66.46;98570.97;5093010;28;20187;-57
2023/08/11 06:08:00;;;;;;;2.08;1.80;;;;;;;21.08;66.35;98579.00;5092518;28;20247;-57
2023/08/11 06:10:26;;;;;;;1.80;1.70;;;;;;;20.99;66.39;98551.06;5092858;28;20188;-58
2023/08/11 06:12:52;;;;;;;1.70;1.60;;;;;;;20.97;65.94;98538.06;5092883;28;20690;-55
2023/08/11 06:15:17;;;;;;;1.65;1.45;;;;;;;21.18;65.50;98546.28;5092730;28;20657;-57
2023/08/11 06:17:45;;;;;;;1.70;1.60;;;;;;;21.31;65.15;98566.78;5092741;28;20269;-58
2023/08/11 06:20:12;;;;;;;1.60;1.50;;;;;;;21.36;64.70;98560.03;5092831;28;20186;-57
2023/08/11 06:22:38;;;;;;;1.60;1.50;;;;;;;21.40;64.93;98563.16;5092634;28;20203;-57
2023/08/11 06:25:05;;;;;;;2.67;1.92;;;;;;;21.50;64.83;98566.44;5092686;28;20183;-57
2023/08/11 06:27:31;;;;;;;1.85;1.75;;;;;;;21.61;64.32;98568.69;5092824;28;20175;-57
2023/08/11 06:29:56;;;;;;;1.65;1.55;;;;;;;21.65;64.72;98575.25;5092615;28;20224;-57
2023/08/11 06:32:22;;;;;;;1.80;1.70;;;;;;;21.69;64.40;98558.16;5092521;28;20267;-57
2023/08/11 06:34:47;;;;;;;2.25;1.63;;;;;;;21.99;63.40;98568.72;5092232;28;20577;-57
2023/08/11 06:37:13;;;;;;;2.08;1.92;;;;;;;21.98;63.48;98556.50;5091348;28;20181;-57
2023/08/11 06:39:38;;;;;;;1.85;1.75;;;;;;;22.14;62.99;98560.91;5092264;28;20171;-57
2023/08/11 06:42:04;;;;;;;1.83;1.73;;;;;;;22.18;62.47;98556.91;5092198;28;20504;-57
2023/08/11 06:44:29;;;;;;;1.50;1.50;;;;;;;22.29;60.94;98553.88;5092245;28;20258;-57
2023/08/11 06:46:55;;;;;;;1.70;1.60;;;;;;;22.46;60.84;98565.97;5092176;28;20186;-57
2023/08/11 06:49:20;;;;;;;2.05;1.70;;;;;;;22.50;60.46;98560.19;5092159;28;20658;-57
2023/08/11 06:51:45;;;;;;;1.50;1.40;;;;;;;22.55;60.00;98557.03;5092146;28;20163;-57
2023/08/11 06:54:11;;;;;;;11.43;10.20;;;;;;;22.59;60.26;98563.56;5092158;28;20630;-57
2023/08/11 06:56:36;;;;;;;3.70;3.50;;;;;;;22.80;60.11;98576.94;5092055;28;20179;-57
2023/08/11 06:59:01;;;;;;;2.63;2.30;;;;;;;22.88;59.34;98588.25;5092044;28;20675;-58
2023/08/11 07:01:27;;;;;;;2.28;1.83;;;;;;;22.79;58.76;98562.09;5091956;28;20286;-58
2023/08/11 07:03:52;;;;;;;1.83;1.73;;;;;;;22.94;58.52;98566.44;5091715;28;20211;-58
2023/08/11 07:06:18;;;;;;;1.70;1.60;;;;;;;23.21;57.32;98583.53;5091791;28;20278;-58
2023/08/11 07:08:50;;;;;;;2.83;1.60;;;;;;;23.37;57.14;98596.56;5048082;28;21105;-57
2023/08/11 07:11:16;;;;;;;1.70;1.60;;;;;;;23.42;56.44;98599.50;5048569;28;20185;-58
2023/08/11 07:13:41;;;;;;;1.92;1.83;;;;;;;23.42;55.24;98588.94;5048397;28;20192;-57
2023/08/11 07:16:07;;;;;;;3.20;1.88;;;;;;;23.39;55.08;98578.72;5048361;28;20175;-57
2023/08/11 07:18:32;;;;;;;2.40;1.98;;;;;;;23.42;54.84;98587.09;5048278;28;20678;-57
2023/08/11 07:20:57;;;;;;;1.98;1.85;;;;;;;23.51;54.83;98595.75;5048124;28;20165;-56
2023/08/11 07:23:23;;;;;;;2.47;2.13;;;;;;;23.43;55.10;98577.38;5048126;28;20208;-56
2023/08/11 07:25:48;;;;;;;4.28;1.92;;;;;;;23.66;54.44;98578.91;5048131;28;20173;-56
2023/08/11 07:28:14;;;;;;;2.15;1.88;;;;;;;23.83;52.98;98591.75;5047714;28;20209;-57
2023/08/11 07:30:39;;;;;;;2.05;1.50;;;;;;;23.90;51.77;98589.19;5047731;28;20260;-56
2023/08/11 07:33:04;;;;;;;2.38;1.85;;;;;;;24.01;51.60;98587.94;5047901;28;20173;-57
2023/08/11 07:35:30;;;;;;;2.20;1.70;;;;;;;24.32;51.05;98618.41;5047599;28;20180;-56
2023/08/11 07:37:56;;;;;;;1.70;1.40;;;;;;;24.29;50.51;98592.31;5047788;28;20189;-56
2023/08/11 07:40:21;;;;;;;3.25;1.80;;;;;;;24.56;50.23;98620.72;5048067;28;20652;-56
2023/08/11 07:42:47;;;;;;;2.05;1.65;;;;;;;24.55;49.12;98609.31;5047724;28;20658;-56
2023/08/11 07:45:13;;;;;;;1.90;1.80;;;;;;;24.74;47.26;98626.44;5047770;28;20284;-56
2023/08/11 07:47:39;;;;;;;2.20;1.70;;;;;;;24.81;46.61;98625.50;5047634;28;20287;-56
2023/08/11 07:50:05;;;;;;;3.25;1.58;;;;;;;24.86;46.98;98625.75;5047739;28;20308;-56
2023/08/11 07:52:30;;;;;;;1.60;1.50;;;;;;;24.91;46.28;98622.53;5047566;28;20652;-56
2023/08/11 07:54:56;;;;;;;1.92;1.42;;;;;;;24.97;45.53;98629.69;5044882;28;20200;-56
2023/08/11 07:57:21;;;;;;;2.97;1.60;;;;;;;24.85;44.97;98610.03;5045058;28;20197;-57
2023/08/11 07:59:47;;;;;;;1.67;1.58;;;;;;;25.03;43.36;98611.22;5044880;28;20189;-56
2023/08/11 08:02:13;;;;;;;1.17;1.10;;;;;;;25.14;43.84;98623.94;5044956;28;20316;-56
2023/08/11 08:04:38;;;;;;;2.33;1.20;;;;;;;25.22;43.72;98631.75;5045028;28;20632;-57
2023/08/11 08:07:04;;;;;;;1.65;1.55;;;;;;;25.20;44.12;98609.91;5044547;28;20237;-56
2023/08/11 08:09:33;;;;;;;1.48;1.38;;;;;;;25.31;44.04;98614.72;5044841;28;20196;-56
2023/08/11 08:12:00;;;;;;;1.42;1.33;;;;;;;25.33;43.87;98611.88;5044761;28;20182;-57
2023/08/11 08:14:25;;;;;;;1.10;1.10;;;;;;;25.42;43.54;98624.78;5044656;28;20228;-57
2023/08/11 08:16:51;;;;;;;4.28;1.40;;;;;;;25.51;43.57;98623.66;5044761;28;20185;-56
2023/08/11 08:19:17;;;;;;;1.92;1.77;;;;;;;25.17;43.53;98598.91;5036601;28;20257;-56
2023/08/11 08:21:42;;;;;;;1.55;1.38;;;;;;;25.34;43.67;98610.88;5031389;28;20194;-57
2023/08/11 08:24:08;;;;;;;1.73;1.45;;;;;;;25.32;43.87;98597.00;5031193;28;20239;-57
2023/08/11 08:26:35;;;;;;;1.20;1.17;;;;;;;25.49;43.98;98606.31;5032728;28;20517;-57
2023/08/11 08:29:01;;;;;;;2.22;1.40;;;;;;;25.65;43.81;98624.56;5033745;28;20170;-57
2023/08/11 08:31:27;;;;;;;2.03;1.23;;;;;;;25.76;43.49;98622.16;5033633;28;20181;-57
2023/08/11 08:33:53;;;;;;;1.52;1.42;;;;;;;25.84;43.47;98629.16;5033590;28;20178;-57
2023/08/11 08:36:18;;;;;;;1.45;1.35;;;;;;;25.82;43.24;98610.78;5033237;28;20568;-57
2023/08/11 08:38:44;;;;;;;1.48;1.33;;;;;;;25.59;42.66;98604.94;5033303;28;20291;-57
2023/08/11 08:41:10;;;;;;;2.35;1.40;;;;;;;25.77;43.23;98615.03;5033425;28;20691;-57
2023/08/11 08:43:36;;;;;;;1.17;1.17;;;;;;;25.95;42.47;98629.44;5033434;28;20173;-57
2023/08/11 08:46:03;;;;;;;2.00;1.40;;;;;;;25.91;42.33;98608.81;5033586;28;20264;-57
2023/08/11 08:48:36;;;;;;;2.33;1.35;;;;;;;26.05;41.55;98616.63;5033224;28;20930;-57
2023/08/11 08:51:02;;;;;;;1.77;1.40;;;;;;;26.06;41.87;98628.88;5033286;28;20209;-57
2023/08/11 08:53:27;;;;;;;1.42;1.33;;;;;;;26.02;41.75;98611.72;5033245;28;20282;-57
2023/08/11 08:55:53;;;;;;;1.40;1.30;;;;;;;26.01;42.41;98604.78;5033155;28;20181;-57
2023/08/11 08:58:18;;;;;;;1.45;1.35;;;;;;;26.22;42.09;98636.50;5033324;28;20184;-57
2023/08/11 09:00:45;;;;;;;3.50;1.52;;;;;;;26.06;41.96;98605.00;5032809;28;20201;-57
2023/08/11 09:03:11;;;;;;;2.92;1.50;;;;;;;26.26;41.64;98624.50;5032977;28;20218;-57
2023/08/11 09:05:37;;;;;;;1.80;1.70;;;;;;;26.20;41.53;98601.41;5033105;28;20189;-57
2023/08/11 09:08:04;;;;;;;2.58;1.30;;;;;;;26.46;41.88;98635.97;5032448;28;20213;-57
2023/08/11 09:10:31;;;;;;;1.63;1.52;;;;;;;26.48;40.45;98625.97;5032869;28;20186;-57
2023/08/11 09:12:56;;;;;;;1.70;1.60;;;;;;;26.46;40.66;98603.28;5032926;28;20228;-57
2023/08/11 09:15:22;;;;;;;1.40;1.30;;;;;;;26.56;40.08;98609.06;5032863;28;20178;-57
2023/08/11 09:17:47;;;;;;;1.50;1.40;;;;;;;26.50;40.11;98620.47;5032790;28;20653;-57
2023/08/11 09:20:17;;;;;;;3.08;1.55;;;;;;;26.44;41.24;98611.47;5032767;28;20184;-57
2023/08/11 09:22:43;;;;;;;1.58;1.48;;;;;;;26.51;40.25;98612.31;5032888;28;20170;-57
2023/08/11 09:25:10;;;;;;;1.33;1.25;;;;;;;26.44;40.56;98584.94;5032654;28;20182;-57
2023/08/11 09:27:36;;;;;;;1.50;1.40;;;;;;;26.51;40.97;98607.00;5032359;28;20204;-58
2023/08/11 09:30:03;;;;;;;1.60;1.50;;;;;;;26.39;41.16;98597.16;5031847;28;20186;-58
2023/08/11 09:32:31;;;;;;;3.55;1.83;;;;;;;26.31;41.14;98600.81;5032163;28;20172;-57
2023/08/11 09:35:00;;;;;;;1.50;1.40;;;;;;;26.19;41.12;98591.78;5032212;28;20675;-57
2023/08/11 09:37:26;;;;;;;1.35;1.20;;;;;;;26.27;40.92;98615.50;5032400;28;20185;-57
2023/08/11 09:39:55;;;;;;;1.67;1.58;;;;;;;26.19;40.45;98591.78;5032256;28;20174;-57
2023/08/11 09:42:21;;;;;;;1.88;1.33;;;;;;;26.33;40.91;98617.38;5032330;28;20273;-57
2023/08/11 09:44:52;;;;;;;1.70;1.60;;;;;;;26.34;40.66;98600.41;5031902;28;20213;-58
2023/08/11 09:47:18;;;;;;;4.93;1.70;;;;;;;26.58;40.48;98618.47;5032227;28;20201;-58
2023/08/11 09:49:44;;;;;;;2.60;1.73;;;;;;;26.69;40.47;98615.25;5032198;28;20184;-58
2023/08/11 09:52:11;;;;;;;1.98;1.10;;;;;;;26.76;40.29;98610.75;5032169;28;20174;-58
2023/08/11 09:54:38;;;;;;;3.83;1.63;;;;;;;26.65;40.21;98587.44;5032170;28;20243;-57
2023/08/11 09:57:05;;;;;;;2.03;1.27;;;;;;;26.78;39.59;98599.94;5032062;28;20170;-58
2023/08/11 09:59:31;;;;;;;1.40;1.30;;;;;;;26.61;39.56;98583.56;5032045;28;20202;-58
2023/08/11 10:02:01;;;;;;;1.45;1.35;;;;;;;26.77;39.92;98593.00;5031938;28;20682;-58
2023/08/11 10:04:41;;;;;;;1.63;1.52;;;;;;;26.97;39.41;98607.91;5031630;28;20177;-58
2023/08/11 10:07:14;;;;;;;2.53;1.40;;;;;;;26.96;39.10;98603.63;5031640;28;20288;-58
2023/08/11 10:09:43;;;;;;;1.63;1.52;;;;;;;27.20;39.76;98602.22;5031582;28;20205;-56
2023/08/11 10:12:09;;;;;;;1.38;1.17;;;;;;;27.21;39.28;98588.72;5031889;28;20180;-57
2023/08/11 10:14:37;;;;;;;1.67;1.58;;;;;;;27.39;39.61;98583.59;5009366;28;20190;-56
2023/08/11 10:17:03;;;;;;;2.25;1.48;;;;;;;27.69;38.63;98608.69;5009440;28;20298;-58
2023/08/11 10:19:30;;;;;;;4.07;1.65;;;;;;;27.91;38.25;98603.94;5009421;28;20613;-58
2023/08/11 10:21:57;;;;;;;1.50;1.40;;;;;;;27.92;36.75;98606.41;5009324;28;20232;-56
2023/08/11 10:24:23;;;;;;;6.68;1.23;;;;;;;27.64;37.43;98583.75;5009278;28;20277;-57
2023/08/11 10:26:49;;;;;;;2.00;1.55;;;;;;;27.80;36.87;98615.25;5009237;28;20309;-57
2023/08/11 10:29:16;;;;;;;2.15;1.30;;;;;;;27.81;36.97;98608.91;5009078;28;20190;-57
2023/08/11 10:32:02;;;;;;;1.65;1.38;;;;;;;27.71;36.04;98608.50;5009279;28;20203;-58
2023/08/11 10:34:27;;;;;;;1.25;1.15;;;;;;;27.58;36.62;98601.34;5008847;28;20190;-58
2023/08/11 10:36:57;;;;;;;1.88;1.15;;;;;;;27.43;36.52;98606.09;5009448;28;20192;-58
2023/08/11 10:39:23;;;;;;;1.25;1.15;;;;;;;27.18;37.67;98589.13;5009193;28;20194;-58
2023/08/11 10:41:49;;;;;;;2.90;1.08;;;;;;;27.09;36.96;98584.19;5008819;28;20603;-58
2023/08/11 10:44:19;;;;;;;2.28;1.23;;;;;;;27.00;38.30;98575.63;5009051;28;20244;-58
2023/08/11 10:46:46;;;;;;;1.08;1.08;;;;;;;27.22;37.58;98574.41;5030971;28;20567;-58
2023/08/11 10:49:14;;;;;;;1.83;0.90;;;;;;;27.66;37.50;98587.84;5031371;28;20208;-56
2023/08/11 10:51:41;;;;;;;2.08;1.35;;;;;;;27.72;36.08;98571.06;5031185;28;20178;-57
2023/08/11 10:54:06;;;;;;;3.15;1.23;;;;;;;28.08;36.53;98589.97;5031098;28;20178;-57
2023/08/11 10:56:34;;;;;;;3.20;1.38;;;;;;;28.35;35.51;98580.84;5031049;28;20178;-57
2023/08/11 10:59:12;;;;;;;1.40;1.27;;;;;;;28.74;34.49;98596.59;5030965;28;20560;-57
2023/08/11 11:01:40;;;;;;;1.30;1.20;;;;;;;28.74;33.92;98561.97;5030968;28;20182;-57
2023/08/11 11:04:07;;;;;;;3.55;1.10;;;;;;;29.14;34.53;98576.66;5030972;28;20177;-57
2023/08/11 11:06:34;;;;;;;1.58;1.10;;;;;;;29.50;33.47;98578.56;5030697;28;20248;-57
2023/08/11 11:09:02;;;;;;;2.85;1.10;;;;;;;29.57;33.38;98563.34;5030981;28;20189;-57
2023/08/11 11:11:28;;;;;;;1.35;1.10;;;;;;;30.11;32.50;98595.38;5030897;28;20296;-57
2023/08/11 11:13:54;;;;;;;4.15;1.20;;;;;;;30.37;32.34;98581.69;5031163;28;20641;-57
2023/08/11 11:16:21;;;;;;;1.73;1.10;;;;;;;30.60;30.59;98595.13;5030940;28;20170;-57
2023/08/11 11:18:48;;;;;;;1.23;1.10;;;;;;;30.28;31.15;98569.69;5030817;28;20192;-57
2023/08/11 11:21:15;;;;;;;2.05;1.00;;;;;;;30.29;31.73;98552.63;5030844;28;20186;-57
2023/08/11 11:23:45;;;;;;;2.25;1.25;;;;;;;30.08;31.82;98585.94;5030875;28;20186;-57
2023/08/11 11:26:11;;;;;;;2.13;1.40;;;;;;;29.86;32.24;98581.28;5030778;28;20272;-57
2023/08/11 11:28:36;;;;;;;4.05;1.35;;;;;;;30.01;32.40;98587.88;5030773;28;20209;-57
2023/08/11 11:31:02;;;;;;;7.03;1.50;;;;;;;29.75;32.23;98576.69;5030796;28;20170;-57